Time;durP1;ratioP1;P1;durP2;ratioP2;P2;SDS_P1;SDS_P2;PMS_P1;PMS_P2;Temp;Humidity;BMP_temperature;BMP_pressure;BME280_temperature;BME280_humidity;BME280_pressure;Samples;Min_cycle;Max_cycle;Signal;HPM_P1;HPM_P2
2023/12/21 00:00:19;;;;;;;14.73;14.40;;;21.50;48.80;;;;;;4994915;28;20963;-66
2023/12/21 00:02:46;;;;;;;14.93;14.53;;;21.50;48.80;;;;;;4994842;28;20965;-66
2023/12/21 00:05:13;;;;;;;15.37;14.97;;;21.50;48.90;;;;;;4994776;28;20895;-66
2023/12/21 00:07:40;;;;;;;15.40;14.90;;;21.50;48.90;;;;;;4994509;28;20977;-66
2023/12/21 00:10:08;;;;;;;14.67;14.33;;;21.50;48.90;;;;;;4994703;28;20477;-66
2023/12/21 00:12:35;;;;;;;14.60;14.20;;;21.50;49.00;;;;;;4994375;28;20566;-66
2023/12/21 00:15:03;;;;;;;15.80;15.40;;;21.50;49.00;;;;;;4994548;28;20867;-66
2023/12/21 00:17:30;;;;;;;16.87;16.43;;;21.50;49.10;;;;;;4994582;28;20446;-66
2023/12/21 00:19:57;;;;;;;16.80;16.40;;;21.50;49.10;;;;;;4994518;28;20468;-66
2023/12/21 00:22:24;;;;;;;14.50;14.10;;;21.50;49.10;;;;;;4994530;28;20522;-66
2023/12/21 00:24:51;;;;;;;14.83;14.43;;;21.50;49.20;;;;;;4994474;28;20896;-66
2023/12/21 00:27:18;;;;;;;15.00;14.60;;;21.50;49.20;;;;;;4994628;28;20894;-66
2023/12/21 00:29:44;;;;;;;14.90;14.50;;;21.50;49.20;;;;;;4993990;28;20885;-66
2023/12/21 00:32:13;;;;;;;15.03;14.63;;;21.50;49.30;;;;;;4989902;28;20439;-66
2023/12/21 00:34:40;;;;;;;14.00;13.60;;;21.50;50.00;;;;;;4993960;28;20486;-68
2023/12/21 00:37:06;;;;;;;13.60;13.27;;;21.50;50.90;;;;;;4992611;28;20503;-66
2023/12/21 00:39:33;;;;;;;14.20;13.70;;;21.60;50.50;;;;;;4991713;28;20478;-68
2023/12/21 00:42:00;;;;;;;13.77;13.33;;;21.60;51.20;;;;;;4994154;28;20443;-70
2023/12/21 00:44:27;;;;;;;13.53;13.20;;;21.70;51.10;;;;;;4994173;28;20470;-68
2023/12/21 00:46:54;;;;;;;14.10;13.70;;;21.60;51.00;;;;;;4994034;28;20495;-68
2023/12/21 00:49:22;;;;;;;13.60;13.30;;;21.70;51.20;;;;;;4991785;28;20533;-69
2023/12/21 00:51:49;;;;;;;14.17;13.77;;;21.70;52.40;;;;;;4993966;28;20478;-67
2023/12/21 00:54:16;;;;;;;13.33;13.03;;;21.70;51.70;;;;;;4993979;28;20558;-68
2023/12/21 00:56:43;;;;;;;13.87;13.47;;;21.80;51.50;;;;;;4993873;28;20467;-69
2023/12/21 00:59:10;;;;;;;15.80;15.27;;;21.70;51.40;;;;;;4993361;28;20481;-69
2023/12/21 01:01:37;;;;;;;13.47;13.07;;;21.70;51.10;;;;;;4991605;28;20463;-69
2023/12/21 01:04:04;;;;;;;14.30;13.90;;;21.70;51.00;;;;;;4994039;28;20435;-69
2023/12/21 01:06:36;;;;;;;13.53;13.23;;;21.70;50.90;;;;;;4994005;28;20493;-69
2023/12/21 01:09:03;;;;;;;14.00;13.70;;;21.70;50.80;;;;;;4991762;28;20454;-69
2023/12/21 01:11:30;;;;;;;13.80;13.50;;;21.70;50.80;;;;;;4993729;28;20950;-69
2023/12/21 01:13:57;;;;;;;14.37;14.00;;;21.70;50.80;;;;;;4993555;28;20522;-69
2023/12/21 01:16:24;;;;;;;13.97;13.57;;;21.70;50.80;;;;;;4993553;28;21125;-69
2023/12/21 01:18:51;;;;;;;14.33;13.90;;;21.70;50.80;;;;;;4991656;28;20502;-69
2023/12/21 01:21:18;;;;;;;13.50;13.20;;;21.60;50.70;;;;;;4993495;28;20474;-69
2023/12/21 01:23:46;;;;;;;13.80;13.33;;;21.60;50.70;;;;;;4993438;28;20478;-69
2023/12/21 01:26:13;;;;;;;13.97;13.60;;;21.60;50.70;;;;;;4993425;28;20467;-69
2023/12/21 01:28:40;;;;;;;13.70;13.30;;;21.60;50.70;;;;;;4992717;28;20893;-69
2023/12/21 01:31:08;;;;;;;13.37;13.07;;;21.60;50.70;;;;;;4993404;28;20471;-69
2023/12/21 01:33:35;;;;;;;13.53;13.23;;;21.60;50.70;;;;;;4993377;28;20506;-69
2023/12/21 01:36:02;;;;;;;13.40;13.10;;;21.60;50.70;;;;;;4993159;28;20491;-69
2023/12/21 01:38:29;;;;;;;14.20;13.80;;;21.60;50.70;;;;;;4992490;28;20519;-69
2023/12/21 01:40:57;;;;;;;14.10;13.70;;;21.60;50.70;;;;;;4992191;28;20463;-69
2023/12/21 01:43:24;;;;;;;14.07;13.67;;;21.60;50.70;;;;;;4993311;28;20467;-69
2023/12/21 01:45:51;;;;;;;14.00;13.70;;;21.60;50.70;;;;;;4992941;28;20490;-69
2023/12/21 01:48:18;;;;;;;14.47;13.73;;;21.60;50.80;;;;;;4987898;28;20482;-69
2023/12/21 01:50:45;;;;;;;14.10;13.70;;;21.60;50.70;;;;;;4993213;28;20479;-69
2023/12/21 01:53:13;;;;;;;14.60;14.20;;;21.50;50.70;;;;;;4992926;28;20474;-69
2023/12/21 01:55:40;;;;;;;14.10;13.70;;;21.50;50.70;;;;;;4992746;28;20495;-69
2023/12/21 01:58:10;;;;;;;13.57;13.27;;;21.50;50.70;;;;;;4986392;28;20470;-69
2023/12/21 02:00:37;;;;;;;13.53;13.13;;;21.50;50.70;;;;;;4992936;28;20942;-69
2023/12/21 02:03:05;;;;;;;13.57;13.17;;;21.50;50.70;;;;;;4992756;28;20439;-69
2023/12/21 02:05:32;;;;;;;13.30;12.90;;;21.50;50.70;;;;;;4992654;28;20505;-70
2023/12/21 02:07:59;;;;;;;14.27;13.93;;;21.50;50.70;;;;;;4992172;28;20463;-69
2023/12/21 02:10:26;;;;;;;14.23;13.73;;;21.50;50.70;;;;;;4992952;28;20890;-69
2023/12/21 02:12:53;;;;;;;13.40;13.10;;;21.50;50.70;;;;;;4992648;28;20884;-69
2023/12/21 02:15:21;;;;;;;14.83;14.43;;;21.50;50.70;;;;;;4992459;28;20870;-69
2023/12/21 02:17:49;;;;;;;13.67;13.37;;;21.50;50.70;;;;;;4986539;28;20480;-69
2023/12/21 02:20:17;;;;;;;13.83;13.53;;;21.50;50.70;;;;;;4992594;28;20466;-69
2023/12/21 02:22:48;;;;;;;13.50;13.10;;;21.50;50.60;;;;;;4992482;28;20933;-69
2023/12/21 02:25:17;;;;;;;13.70;13.40;;;21.50;50.60;;;;;;4992312;28;20470;-69
2023/12/21 02:27:44;;;;;;;13.03;12.73;;;21.50;50.60;;;;;;4991876;28;20479;-69
2023/12/21 02:30:12;;;;;;;15.03;14.63;;;21.50;50.70;;;;;;4992694;28;20475;-69
2023/12/21 02:32:39;;;;;;;14.00;13.50;;;21.50;50.80;;;;;;4991604;28;20474;-69
2023/12/21 02:35:06;;;;;;;13.47;13.00;;;21.50;50.80;;;;;;4992199;28;20506;-69
2023/12/21 02:37:34;;;;;;;13.93;13.53;;;21.50;50.80;;;;;;4992228;28;20449;-69
2023/12/21 02:40:01;;;;;;;13.70;13.40;;;21.50;50.80;;;;;;4992252;28;20873;-69
2023/12/21 02:42:29;;;;;;;13.07;12.77;;;21.50;50.90;;;;;;4992336;28;20470;-69
2023/12/21 02:44:56;;;;;;;13.60;13.20;;;21.50;50.90;;;;;;4992075;28;20471;-69
2023/12/21 02:47:23;;;;;;;13.37;12.97;;;21.40;50.80;;;;;;4991993;28;20505;-69
2023/12/21 02:49:50;;;;;;;12.73;12.33;;;21.40;50.80;;;;;;4992194;28;20447;-69
2023/12/21 02:52:17;;;;;;;13.07;12.77;;;21.40;50.80;;;;;;4992701;28;20470;-69
2023/12/21 02:54:43;;;;;;;12.67;12.33;;;21.40;50.80;;;;;;4990672;28;20514;-69
2023/12/21 02:57:10;;;;;;;12.93;12.63;;;21.40;50.90;;;;;;4996138;28;20894;-69
2023/12/21 02:59:43;;;;;;;14.00;13.60;;;21.40;50.90;;;;;;4996198;28;20478;-69
2023/12/21 03:02:10;;;;;;;13.57;13.17;;;21.40;50.90;;;;;;4996134;28;20470;-69
2023/12/21 03:04:37;;;;;;;13.70;13.30;;;21.40;51.00;;;;;;4990884;28;20478;-69
2023/12/21 03:07:04;;;;;;;13.90;13.50;;;21.40;51.00;;;;;;4988109;28;20493;-69
2023/12/21 03:09:30;;;;;;;13.93;13.60;;;21.40;51.10;;;;;;4996017;28;20478;-69
2023/12/21 03:11:57;;;;;;;16.30;15.80;;;21.40;51.10;;;;;;4995954;28;20537;-69
2023/12/21 03:14:24;;;;;;;13.30;13.00;;;21.40;51.10;;;;;;4992843;28;20507;-69
2023/12/21 03:16:52;;;;;;;14.03;13.63;;;21.40;51.10;;;;;;4993863;28;20491;-69
2023/12/21 03:19:19;;;;;;;13.53;13.23;;;21.40;51.10;;;;;;4995857;28;20482;-69
2023/12/21 03:21:46;;;;;;;13.20;12.90;;;21.40;51.10;;;;;;4995689;28;20474;-69
2023/12/21 03:24:13;;;;;;;13.07;12.77;;;21.40;51.10;;;;;;4994352;28;20466;-69
2023/12/21 03:26:41;;;;;;;13.40;13.10;;;21.40;51.10;;;;;;4992427;28;20548;-69
2023/12/21 03:29:08;;;;;;;13.77;13.47;;;21.40;51.10;;;;;;4995723;28;20443;-69
2023/12/21 03:31:35;;;;;;;13.60;13.30;;;21.40;51.10;;;;;;4995653;28;20481;-69
2023/12/21 03:34:03;;;;;;;13.13;12.73;;;21.40;51.00;;;;;;4995118;28;20511;-69
2023/12/21 03:36:31;;;;;;;12.80;12.50;;;21.40;51.10;;;;;;4991088;28;20495;-69
2023/12/21 03:38:59;;;;;;;13.60;13.30;;;21.40;51.10;;;;;;4995314;28;20876;-69
2023/12/21 03:41:26;;;;;;;14.03;13.63;;;21.40;51.10;;;;;;4995632;28;20501;-69
2023/12/21 03:43:53;;;;;;;14.30;13.90;;;21.40;51.10;;;;;;4995362;28;20462;-69
2023/12/21 03:46:19;;;;;;;13.60;13.30;;;21.30;51.10;;;;;;4990865;28;20506;-69
2023/12/21 03:48:46;;;;;;;13.60;13.30;;;21.30;51.10;;;;;;4995068;28;20478;-69
2023/12/21 03:51:15;;;;;;;13.20;12.80;;;21.30;51.10;;;;;;4995279;28;20467;-69
2023/12/21 03:53:41;;;;;;;14.70;14.20;;;21.30;51.10;;;;;;4995155;28;20714;-69
2023/12/21 03:56:09;;;;;;;14.00;13.60;;;21.30;51.10;;;;;;4989810;28;20517;-69
2023/12/21 03:58:37;;;;;;;13.90;13.53;;;21.30;51.20;;;;;;4991314;28;20473;-69
2023/12/21 04:01:05;;;;;;;14.07;13.67;;;21.30;51.20;;;;;;4994962;28;20807;-69
2023/12/21 04:03:31;;;;;;;14.20;13.90;;;21.30;51.20;;;;;;4995102;28;20449;-69
2023/12/21 04:05:58;;;;;;;15.83;15.43;;;21.30;51.20;;;;;;4993859;28;20466;-69
2023/12/21 04:08:27;;;;;;;14.27;13.87;;;21.30;51.20;;;;;;4994851;28;20485;-70
2023/12/21 04:10:53;;;;;;;14.63;14.23;;;21.30;51.20;;;;;;4994789;28;20462;-69
2023/12/21 04:13:20;;;;;;;14.67;14.33;;;21.30;51.20;;;;;;4994980;28;20483;-69
2023/12/21 04:15:47;;;;;;;14.30;13.97;;;21.30;51.20;;;;;;4994061;28;20467;-69
2023/12/21 04:18:14;;;;;;;14.03;13.63;;;21.30;51.20;;;;;;4994770;28;20474;-69
2023/12/21 04:20:41;;;;;;;13.93;13.63;;;21.30;51.20;;;;;;4994865;28;20860;-69
2023/12/21 04:23:08;;;;;;;13.60;13.30;;;21.30;51.20;;;;;;4994765;28;20439;-69
2023/12/21 04:25:37;;;;;;;13.50;13.20;;;21.30;51.20;;;;;;4990805;28;20504;-69
2023/12/21 04:28:04;;;;;;;14.33;14.00;;;21.30;51.30;;;;;;4994554;28;20513;-69
2023/12/21 04:30:31;;;;;;;14.40;14.00;;;21.30;51.30;;;;;;4994594;28;20470;-69
2023/12/21 04:32:58;;;;;;;14.43;14.03;;;21.30;51.30;;;;;;4994575;28;20481;-69
2023/12/21 04:35:25;;;;;;;14.67;14.27;;;21.30;51.30;;;;;;4993755;28;20514;-69
2023/12/21 04:37:52;;;;;;;14.77;14.27;;;21.30;51.30;;;;;;4994367;28;20858;-69
2023/12/21 04:40:18;;;;;;;14.63;14.23;;;21.30;51.40;;;;;;4994372;28;20517;-69
2023/12/21 04:42:52;;;;;;;15.10;14.70;;;21.30;51.40;;;;;;4993438;28;20485;-69
2023/12/21 04:45:19;;;;;;;15.00;14.50;;;21.30;51.40;;;;;;4989394;28;20448;-69
2023/12/21 04:47:45;;;;;;;15.20;14.80;;;21.30;51.50;;;;;;4991341;28;20475;-69
2023/12/21 04:50:12;;;;;;;14.53;14.13;;;21.30;51.40;;;;;;4994374;28;20475;-69
2023/12/21 04:52:39;;;;;;;14.70;14.30;;;21.30;51.40;;;;;;4993730;28;20477;-69
2023/12/21 04:55:06;;;;;;;14.07;13.77;;;21.30;51.40;;;;;;4993710;28;20566;-69
2023/12/21 04:57:33;;;;;;;15.13;14.73;;;21.30;51.40;;;;;;4994283;28;20975;-69
2023/12/21 05:00:05;;;;;;;15.60;15.10;;;21.30;51.40;;;;;;4994081;28;20847;-69
2023/12/21 05:02:31;;;;;;;15.50;15.10;;;21.30;51.40;;;;;;4993978;28;20447;-69
2023/12/21 05:04:58;;;;;;;16.20;15.80;;;21.30;51.40;;;;;;4993430;28;20467;-68
2023/12/21 05:07:25;;;;;;;15.97;15.57;;;21.30;51.40;;;;;;4993811;28;20494;-69
2023/12/21 05:09:54;;;;;;;16.57;16.07;;;21.30;51.40;;;;;;4993922;28;20549;-69
2023/12/21 05:12:21;;;;;;;15.10;14.70;;;21.30;51.90;;;;;;4993238;28;20509;-69
2023/12/21 05:14:48;;;;;;;16.40;16.00;;;21.30;51.40;;;;;;4987519;28;20502;-69
2023/12/21 05:17:16;;;;;;;16.13;15.73;;;21.30;51.40;;;;;;4993622;28;20490;-69
2023/12/21 05:19:44;;;;;;;16.30;15.90;;;21.30;51.30;;;;;;4993749;28;20870;-69
2023/12/21 05:22:11;;;;;;;18.30;17.70;;;21.30;51.30;;;;;;4988029;28;20443;-69
2023/12/21 05:24:39;;;;;;;17.77;17.27;;;21.30;51.30;;;;;;4993554;28;20536;-68
2023/12/21 05:27:06;;;;;;;17.80;17.30;;;21.30;51.30;;;;;;4993328;28;20490;-68
2023/12/21 05:29:33;;;;;;;17.60;17.10;;;21.30;51.30;;;;;;4993591;28;20531;-69
2023/12/21 05:32:00;;;;;;;18.43;17.90;;;21.30;51.30;;;;;;4992569;28;20530;-69
2023/12/21 05:34:28;;;;;;;17.33;16.83;;;21.30;51.30;;;;;;4993367;28;20557;-69
2023/12/21 05:36:55;;;;;;;17.90;17.40;;;21.30;51.30;;;;;;4993224;28;20506;-69
2023/12/21 05:39:22;;;;;;;17.40;16.90;;;21.30;51.30;;;;;;4993332;28;20450;-69
2023/12/21 05:41:49;;;;;;;18.17;17.57;;;21.30;51.40;;;;;;4987874;28;20475;-68
2023/12/21 05:44:16;;;;;;;16.97;16.53;;;21.30;51.40;;;;;;4993125;28;20466;-68
2023/12/21 05:46:43;;;;;;;17.17;16.77;;;21.30;51.40;;;;;;4992820;28;20494;-69
2023/12/21 05:49:10;;;;;;;17.80;17.30;;;21.30;51.30;;;;;;4985201;28;20812;-69
2023/12/21 05:51:38;;;;;;;19.23;18.73;;;21.30;51.30;;;;;;4992320;28;20451;-69
2023/12/21 05:54:05;;;;;;;19.30;18.80;;;21.30;51.30;;;;;;4992624;28;20443;-69
2023/12/21 05:56:32;;;;;;;16.83;16.43;;;21.30;51.30;;;;;;4992704;28;20498;-69
2023/12/21 05:58:59;;;;;;;17.13;16.73;;;21.30;51.30;;;;;;4993006;28;20447;-68
2023/12/21 06:01:26;;;;;;;17.50;17.00;;;21.30;51.30;;;;;;4990596;28;20474;-69
2023/12/21 06:03:53;;;;;;;16.97;16.47;;;21.30;51.50;;;;;;4990463;28;20532;-68
2023/12/21 06:06:20;;;;;;;17.20;16.70;;;21.30;51.50;;;;;;4992865;28;20499;-69
2023/12/21 06:08:48;;;;;;;18.10;17.60;;;21.30;51.50;;;;;;4992745;28;20479;-69
2023/12/21 06:11:15;;;;;;;18.30;17.80;;;21.30;51.50;;;;;;4991882;28;20866;-69
2023/12/21 06:13:42;;;;;;;16.60;16.20;;;21.30;51.50;;;;;;4988805;28;20901;-69
2023/12/21 06:16:11;;;;;;;18.03;17.53;;;21.30;51.50;;;;;;4992319;28;20538;-69
2023/12/21 06:18:38;;;;;;;18.07;17.37;;;21.30;51.60;;;;;;4992552;28;20534;-69
2023/12/21 06:21:05;;;;;;;16.47;16.03;;;21.30;51.50;;;;;;4992169;28;20443;-69
2023/12/21 06:23:32;;;;;;;17.87;17.23;;;21.30;51.50;;;;;;4992578;28;20494;-68
2023/12/21 06:26:00;;;;;;;17.00;16.40;;;21.30;51.40;;;;;;5006761;23;20518;-70
2023/12/21 06:28:28;;;;;;;18.50;18.00;;;21.30;51.40;;;;;;4991417;28;20471;-70
2023/12/21 06:30:55;;;;;;;17.30;16.80;;;21.30;51.30;;;;;;4992404;28;20840;-70
2023/12/21 06:33:23;;;;;;;17.90;17.23;;;21.30;51.30;;;;;;4992534;28;20849;-70
2023/12/21 06:35:50;;;;;;;17.97;17.47;;;21.30;51.40;;;;;;4992222;28;20549;-71
2023/12/21 06:38:16;;;;;;;18.63;18.13;;;21.30;51.40;;;;;;4991763;28;20481;-70
2023/12/21 06:40:43;;;;;;;18.63;18.03;;;21.30;51.40;;;;;;4992341;28;20803;-70
2023/12/21 06:43:12;;;;;;;17.97;17.40;;;21.30;51.40;;;;;;4992226;28;20473;-70
2023/12/21 06:45:39;;;;;;;19.07;18.47;;;21.30;51.40;;;;;;4988646;28;20447;-70
2023/12/21 06:48:07;;;;;;;18.60;17.90;;;21.30;51.40;;;;;;4991664;28;20451;-70
2023/12/21 06:50:34;;;;;;;18.50;17.90;;;21.30;51.30;;;;;;4992260;28;20548;-70
2023/12/21 06:53:00;;;;;;;17.17;16.67;;;21.30;51.40;;;;;;4992097;28;20474;-70
2023/12/21 06:55:27;;;;;;;17.40;16.80;;;21.30;51.30;;;;;;4991532;28;20514;-70
2023/12/21 06:57:54;;;;;;;17.57;16.87;;;21.30;51.30;;;;;;4991922;28;20494;-70
2023/12/21 07:00:22;;;;;;;17.67;17.17;;;21.30;51.30;;;;;;4992095;28;20485;-70
2023/12/21 07:02:49;;;;;;;19.00;18.40;;;21.30;51.30;;;;;;4992022;28;20843;-70
2023/12/21 07:05:16;;;;;;;18.73;18.17;;;21.30;51.30;;;;;;4992113;28;20463;-70
2023/12/21 07:07:43;;;;;;;16.90;16.40;;;21.30;51.30;;;;;;4991552;28;20486;-70
2023/12/21 07:10:11;;;;;;;17.40;16.90;;;21.40;51.40;;;;;;4991833;28;20470;-70
2023/12/21 07:12:38;;;;;;;17.90;17.30;;;21.30;51.40;;;;;;4990159;28;20450;-72
2023/12/21 07:15:06;;;;;;;18.00;17.40;;;21.40;51.50;;;;;;4991253;28;20518;-72
2023/12/21 07:17:34;;;;;;;18.90;18.10;;;21.30;51.70;;;;;;4990096;28;20490;-72
2023/12/21 07:20:01;;;;;;;18.03;17.53;;;21.30;52.00;;;;;;4990856;28;20445;-72
2023/12/21 07:22:28;;;;;;;18.63;17.67;;;21.30;52.10;;;;;;4991393;28;20451;-72
2023/12/21 07:24:55;;;;;;;18.90;18.30;;;21.30;52.20;;;;;;4991260;28;20478;-72
2023/12/21 07:27:21;;;;;;;19.37;18.50;;;21.30;52.20;;;;;;4991443;28;20506;-71
2023/12/21 07:29:49;;;;;;;17.27;16.77;;;21.30;52.10;;;;;;4991142;28;20478;-70
2023/12/21 07:32:16;;;;;;;18.50;17.90;;;21.30;54.00;;;;;;4991746;28;20439;-66
2023/12/21 07:34:44;;;;;;;18.33;17.83;;;21.30;53.80;;;;;;4991971;28;20969;-66
2023/12/21 07:37:12;;;;;;;18.13;17.50;;;21.40;54.20;;;;;;4987425;28;20501;-69
2023/12/21 07:39:39;;;;;;;17.83;17.33;;;21.40;53.50;;;;;;4991032;28;20876;-68
2023/12/21 07:42:06;;;;;;;18.73;17.93;;;21.40;53.30;;;;;;4994179;28;20497;-69
2023/12/21 07:44:35;;;;;;;18.17;17.57;;;21.40;53.40;;;;;;4994611;28;20443;-69
2023/12/21 07:47:02;;;;;;;18.20;17.70;;;21.40;53.40;;;;;;4994700;28;20458;-69
2023/12/21 07:49:29;;;;;;;18.73;18.13;;;21.50;53.30;;;;;;4993264;28;21004;-70
2023/12/21 07:51:58;;;;;;;18.60;18.10;;;21.50;53.30;;;;;;4995062;28;20490;-70
2023/12/21 07:54:24;;;;;;;18.93;18.33;;;21.50;53.20;;;;;;4995211;28;20505;-70
2023/12/21 07:56:52;;;;;;;18.60;18.10;;;21.50;53.10;;;;;;4994970;28;20997;-69
2023/12/21 07:59:19;;;;;;;18.20;17.57;;;21.50;53.00;;;;;;4995430;28;20443;-70
2023/12/21 08:01:46;;;;;;;18.00;17.40;;;21.60;53.00;;;;;;4994602;28;20517;-69
2023/12/21 08:04:13;;;;;;;18.30;17.80;;;21.60;52.90;;;;;;4994995;28;20449;-69
2023/12/21 08:06:40;;;;;;;18.83;18.30;;;21.60;52.80;;;;;;4994911;28;20498;-70
2023/12/21 08:09:09;;;;;;;17.60;17.10;;;21.60;52.80;;;;;;4993876;28;20505;-69
2023/12/21 08:11:36;;;;;;;19.47;18.87;;;21.70;52.90;;;;;;4994726;28;20537;-68
2023/12/21 08:14:03;;;;;;;18.20;17.70;;;21.70;52.90;;;;;;4994760;28;20475;-69
2023/12/21 08:16:29;;;;;;;19.83;19.23;;;21.70;52.90;;;;;;4994700;28;20517;-67
2023/12/21 08:18:56;;;;;;;19.77;19.17;;;21.70;52.80;;;;;;4994710;28;20853;-68
2023/12/21 08:21:23;;;;;;;18.70;18.10;;;21.80;52.50;;;;;;4994699;28;20502;-68
2023/12/21 08:23:51;;;;;;;18.17;17.60;;;21.80;52.50;;;;;;4994664;28;20475;-70
2023/12/21 08:26:20;;;;;;;18.37;17.77;;;21.80;54.30;;;;;;4994073;28;20477;-69
2023/12/21 08:28:47;;;;;;;18.47;17.97;;;21.80;52.80;;;;;;4994661;28;20475;-69
2023/12/21 08:31:23;;;;;;;19.00;18.10;;;21.80;52.50;;;;;;4994283;28;20470;-69
2023/12/21 08:33:50;;;;;;;19.00;18.50;;;21.80;52.50;;;;;;4994524;28;20443;-69
2023/12/21 08:36:17;;;;;;;19.50;18.90;;;21.80;52.50;;;;;;4986706;28;21092;-68
2023/12/21 08:38:44;;;;;;;18.50;18.00;;;21.80;52.40;;;;;;4994483;28;20475;-68
2023/12/21 08:41:11;;;;;;;18.83;18.23;;;21.80;52.40;;;;;;4994239;28;20984;-68
2023/12/21 08:43:39;;;;;;;18.13;17.63;;;21.90;52.50;;;;;;4994192;28;20482;-67
2023/12/21 08:46:06;;;;;;;18.50;17.90;;;21.80;52.40;;;;;;4994056;28;20462;-66
2023/12/21 08:48:33;;;;;;;17.97;17.37;;;21.90;52.40;;;;;;4994261;28;20471;-69
2023/12/21 08:51:00;;;;;;;19.93;19.20;;;21.90;53.00;;;;;;4993681;28;20471;-68
2023/12/21 08:53:27;;;;;;;20.10;19.50;;;21.90;52.90;;;;;;4994244;28;20542;-69
2023/12/21 08:55:54;;;;;;;19.60;18.80;;;21.90;52.70;;;;;;4993730;28;20517;-71
2023/12/21 08:58:20;;;;;;;17.57;17.07;;;21.90;52.60;;;;;;4993984;28;20478;-70
2023/12/21 09:00:49;;;;;;;18.33;17.83;;;21.90;52.60;;;;;;4994096;28;20481;-70
2023/12/21 09:03:16;;;;;;;17.83;17.23;;;21.90;52.70;;;;;;4993715;28;20965;-70
2023/12/21 09:05:43;;;;;;;18.23;17.63;;;21.90;52.60;;;;;;4993831;28;20447;-70
2023/12/21 09:08:10;;;;;;;18.30;17.80;;;22.00;52.60;;;;;;4993614;28;20443;-71
2023/12/21 09:10:37;;;;;;;18.48;17.77;;;22.00;52.50;;;;;;4993475;28;20464;-68
2023/12/21 09:13:04;;;;;;;19.40;18.80;;;22.00;52.50;;;;;;4993589;28;20235;-70
2023/12/21 09:15:31;;;;;;;19.80;19.10;;;22.00;52.40;;;;;;4993603;28;20517;-67
2023/12/21 09:17:59;;;;;;;20.00;19.40;;;22.10;52.40;;;;;;4993696;28;20505;-67
2023/12/21 09:20:26;;;;;;;20.00;19.30;;;22.10;52.70;;;;;;4993631;28;20478;-67
2023/12/21 09:22:53;;;;;;;20.67;19.97;;;22.10;52.60;;;;;;4993375;28;20454;-69
2023/12/21 09:25:20;;;;;;;15.98;15.38;;;22.10;52.60;;;;;;4992525;28;20592;-70
2023/12/21 09:27:47;;;;;;;18.63;18.03;;;22.10;52.20;;;;;;4993249;28;20270;-66
2023/12/21 09:30:16;;;;;;;18.10;17.60;;;22.20;52.30;;;;;;4993080;28;20475;-66
2023/12/21 09:32:45;;;;;;;17.80;17.30;;;22.20;52.10;;;;;;4993384;28;20458;-69
2023/12/21 09:35:13;;;;;;;18.27;17.77;;;22.30;52.20;;;;;;4993326;28;20478;-67
2023/12/21 09:37:40;;;;;;;20.80;20.20;;;22.30;52.20;;;;;;4993231;28;20528;-67
2023/12/21 09:40:09;;;;;;;18.37;17.80;;;22.30;52.20;;;;;;4993020;28;20471;-68
2023/12/21 09:42:43;;;;;;;19.10;18.50;;;22.20;51.80;;;;;;4993132;28;20522;-68
2023/12/21 09:45:11;;;;;;;19.30;18.80;;;22.20;52.20;;;;;;4993017;28;20439;-67
2023/12/21 09:47:39;;;;;;;20.13;19.53;;;22.20;52.20;;;;;;4992939;28;20497;-68
2023/12/21 09:50:08;;;;;;;20.27;19.50;;;22.20;52.30;;;;;;4993131;28;20481;-67
2023/12/21 09:52:38;;;;;;;19.30;18.70;;;22.20;52.20;;;;;;4993050;28;20478;-67
2023/12/21 09:55:07;;;;;;;19.17;18.57;;;22.20;52.30;;;;;;4992892;28;20447;-67
2023/12/21 09:57:36;;;;;;;19.33;18.73;;;22.30;52.40;;;;;;4992874;28;20573;-67
2023/12/21 10:00:04;;;;;;;19.00;18.40;;;22.30;53.00;;;;;;4992719;28;20478;-69
2023/12/21 10:02:31;;;;;;;19.90;19.30;;;22.30;53.60;;;;;;4992137;28;20454;-68
2023/12/21 10:04:59;;;;;;;19.90;19.37;;;22.30;52.50;;;;;;4992674;28;20451;-68
2023/12/21 10:07:26;;;;;;;18.90;18.40;;;22.30;52.40;;;;;;4992598;28;20540;-66
2023/12/21 10:09:54;;;;;;;19.43;18.83;;;22.30;52.80;;;;;;4992650;28;20449;-68
2023/12/21 10:12:22;;;;;;;20.37;19.77;;;22.30;52.90;;;;;;4984965;28;20439;-68
2023/12/21 10:14:58;;;;;;;19.87;19.27;;;22.30;52.60;;;;;;4992706;28;20447;-69
2023/12/21 10:17:24;;;;;;;19.33;18.77;;;22.30;52.70;;;;;;4985093;28;20489;-69
2023/12/21 10:19:52;;;;;;;19.00;18.50;;;22.30;52.40;;;;;;4992606;28;20479;-68
2023/12/21 10:22:21;;;;;;;19.93;19.43;;;22.30;52.30;;;;;;4992552;28;20471;-68
2023/12/21 10:24:49;;;;;;;20.07;19.47;;;22.30;52.30;;;;;;4992549;28;20953;-68
2023/12/21 10:27:21;;;;;;;19.40;18.90;;;22.40;52.40;;;;;;4992006;28;20463;-67
2023/12/21 10:29:53;;;;;;;21.43;20.83;;;22.40;52.50;;;;;;4992606;28;20455;-67
2023/12/21 10:32:20;;;;;;;20.20;19.60;;;22.40;52.40;;;;;;4992281;28;20443;-68
2023/12/21 10:34:47;;;;;;;19.03;18.37;;;22.40;52.40;;;;;;4992483;28;20454;-68
2023/12/21 10:37:15;;;;;;;18.80;18.20;;;22.40;52.50;;;;;;4992079;28;20482;-67
2023/12/21 10:39:42;;;;;;;19.23;18.40;;;22.50;52.50;;;;;;4992397;28;20977;-68
2023/12/21 10:42:09;;;;;;;19.57;19.07;;;22.50;52.50;;;;;;4992233;28;20482;-67
2023/12/21 10:44:38;;;;;;;20.60;20.00;;;22.50;52.30;;;;;;4992223;28;20852;-68
2023/12/21 10:47:06;;;;;;;19.13;18.60;;;22.50;52.20;;;;;;4992000;28;20467;-68
2023/12/21 10:49:33;;;;;;;19.03;18.53;;;22.50;52.20;;;;;;4992218;28;20451;-68
2023/12/21 10:52:03;;;;;;;19.40;18.90;;;22.50;52.20;;;;;;4992043;28;20477;-68
2023/12/21 10:54:32;;;;;;;19.80;19.30;;;22.50;52.10;;;;;;4992145;28;20868;-68
2023/12/21 10:57:00;;;;;;;18.40;17.90;;;22.50;52.20;;;;;;4991762;28;20577;-71
2023/12/21 10:59:28;;;;;;;18.57;18.07;;;22.50;52.50;;;;;;4992296;28;20443;-71
2023/12/21 11:01:56;;;;;;;19.60;18.90;;;22.50;52.30;;;;;;4992033;28;20471;-70
2023/12/21 11:04:25;;;;;;;18.57;18.03;;;22.50;52.20;;;;;;4984142;28;20497;-70
2023/12/21 11:06:53;;;;;;;18.03;17.53;;;22.50;52.20;;;;;;4991969;28;20479;-66
2023/12/21 11:09:21;;;;;;;18.57;18.07;;;22.50;51.90;;;;;;4991951;28;20466;-67
2023/12/21 11:11:49;;;;;;;19.30;18.80;;;22.50;51.70;;;;;;4991689;28;20443;-69
2023/12/21 11:14:17;;;;;;;19.93;19.33;;;22.50;52.00;;;;;;4994276;28;20479;-68
2023/12/21 11:16:45;;;;;;;20.60;20.07;;;22.50;52.50;;;;;;4995857;28;20533;-68
2023/12/21 11:19:20;;;;;;;19.07;18.57;;;22.50;52.60;;;;;;4995892;28;20475;-68
2023/12/21 11:21:47;;;;;;;19.60;19.00;;;22.50;52.00;;;;;;4995899;28;20470;-68
2023/12/21 11:24:22;;;;;;;20.13;19.57;;;22.50;52.10;;;;;;4995598;28;20974;-69
2023/12/21 11:26:50;;;;;;;20.80;20.10;;;22.40;51.90;;;;;;4995695;28;20458;-68
2023/12/21 11:29:23;;;;;;;21.30;20.70;;;22.50;52.00;;;;;;4995687;28;20450;-69
2023/12/21 11:31:50;;;;;;;20.73;20.13;;;22.50;52.00;;;;;;4995679;28;20442;-68
2023/12/21 11:34:21;;;;;;;20.50;19.80;;;22.40;51.90;;;;;;4995422;28;20451;-69
2023/12/21 11:36:52;;;;;;;21.13;20.53;;;22.50;52.20;;;;;;4995470;28;20494;-68
2023/12/21 11:39:20;;;;;;;19.47;18.97;;;22.50;52.10;;;;;;4995293;28;20447;-69
2023/12/21 11:41:51;;;;;;;20.77;20.17;;;22.50;52.00;;;;;;4995578;28;20529;-68
2023/12/21 11:44:18;;;;;;;20.23;19.63;;;22.50;52.10;;;;;;4994715;28;20822;-69
2023/12/21 11:46:46;;;;;;;19.00;18.50;;;22.50;52.00;;;;;;4994937;28;20451;-68
2023/12/21 11:49:23;;;;;;;19.60;19.10;;;22.60;52.10;;;;;;4995158;28;20938;-67
2023/12/21 11:51:51;;;;;;;18.60;18.10;;;22.50;52.00;;;;;;4995307;28;20446;-66
2023/12/21 11:54:22;;;;;;;20.20;19.60;;;22.60;52.10;;;;;;4995010;28;20448;-67
2023/12/21 11:56:51;;;;;;;20.50;19.90;;;22.60;52.00;;;;;;4995027;28;20482;-66
2023/12/21 11:59:18;;;;;;;19.30;18.80;;;22.50;52.00;;;;;;4994970;28;20485;-65
2023/12/21 12:01:47;;;;;;;19.97;19.37;;;22.50;51.90;;;;;;4995004;28;20475;-65
2023/12/21 12:04:15;;;;;;;19.60;19.10;;;22.60;52.10;;;;;;4994669;28;20451;-65
2023/12/21 12:06:44;;;;;;;20.63;20.03;;;22.60;52.00;;;;;;4994933;28;20466;-64
2023/12/21 12:09:11;;;;;;;19.50;18.60;;;22.60;52.00;;;;;;4994861;28;21004;-68
2023/12/21 12:11:38;;;;;;;19.83;19.13;;;22.70;52.50;;;;;;4995029;28;20543;-64
2023/12/21 12:14:06;;;;;;;20.10;19.23;;;22.70;52.90;;;;;;4995575;28;20482;-68
2023/12/21 12:16:33;;;;;;;19.07;18.37;;;22.70;52.20;;;;;;4994865;28;20485;-66
2023/12/21 12:19:00;;;;;;;18.27;17.77;;;22.70;52.10;;;;;;4994920;28;20455;-70
2023/12/21 12:21:28;;;;;;;18.13;17.63;;;22.70;52.60;;;;;;4994826;28;20478;-65
2023/12/21 12:23:57;;;;;;;18.73;18.07;;;22.70;52.30;;;;;;4994835;28;20447;-63
2023/12/21 12:26:24;;;;;;;18.13;17.63;;;22.70;53.00;;;;;;5017775;23;20850;-65
2023/12/21 12:28:53;;;;;;;15.30;14.90;;;22.70;52.60;;;;;;4993886;28;20465;-66